sensor_id;sensor_type;location;lat;lon;timestamp;pressure;altitude;pressure_sealevel;temperature;humidity
66398;BME280;54877;51.504;3.894;2023-03-20T00:01:16;102039.00;;;10.29;63.62
66398;BME280;54877;51.504;3.894;2023-03-20T00:03:43;102042.47;;;10.31;63.66
66398;BME280;54877;51.504;3.894;2023-03-20T00:08:41;102072.59;;;10.27;63.37
66398;BME280;54877;51.504;3.894;2023-03-20T00:14:00;102084.41;;;10.16;63.60
66398;BME280;54877;51.504;3.894;2023-03-20T00:16:36;102082.72;;;10.12;63.70
66398;BME280;54877;51.504;3.894;2023-03-20T00:19:04;102064.41;;;10.04;63.55
66398;BME280;54877;51.504;3.894;2023-03-20T00:21:31;102052.06;;;10.03;63.87
66398;BME280;54877;51.504;3.894;2023-03-20T00:23:57;102057.28;;;10.06;63.50
66398;BME280;54877;51.504;3.894;2023-03-20T00:26:24;102062.56;;;10.06;63.46
66398;BME280;54877;51.504;3.894;2023-03-20T00:28:52;102055.44;;;10.08;63.57
66398;BME280;54877;51.504;3.894;2023-03-20T00:31:25;102052.00;;;10.06;63.32
66398;BME280;54877;51.504;3.894;2023-03-20T00:33:52;102057.19;;;10.09;63.38
66398;BME280;54877;51.504;3.894;2023-03-20T00:36:21;102037.16;;;10.00;63.67
66398;BME280;54877;51.504;3.894;2023-03-20T00:38:48;102027.44;;;10.01;63.20
66398;BME280;54877;51.504;3.894;2023-03-20T00:41:24;102012.69;;;9.92;63.50
66398;BME280;54877;51.504;3.894;2023-03-20T00:43:54;102026.75;;;9.94;63.57
66398;BME280;54877;51.504;3.894;2023-03-20T00:46:22;102034.75;;;9.93;63.46
66398;BME280;54877;51.504;3.894;2023-03-20T00:48:48;102023.28;;;9.92;63.50
66398;BME280;54877;51.504;3.894;2023-03-20T00:51:14;102036.81;;;9.82;64.02
66398;BME280;54877;51.504;3.894;2023-03-20T00:53:40;102031.44;;;9.85;63.52
66398;BME280;54877;51.504;3.894;2023-03-20T00:56:05;102048.88;;;9.92;63.37
66398;BME280;54877;51.504;3.894;2023-03-20T00:58:37;102043.50;;;9.95;63.58
66398;BME280;54877;51.504;3.894;2023-03-20T01:01:03;102050.53;;;9.96;63.56
66398;BME280;54877;51.504;3.894;2023-03-20T01:03:28;102050.44;;;9.99;63.75
66398;BME280;54877;51.504;3.894;2023-03-20T01:05:54;102045.25;;;9.96;63.35
66398;BME280;54877;51.504;3.894;2023-03-20T01:08:22;102038.25;;;9.93;63.69
66398;BME280;54877;51.504;3.894;2023-03-20T01:10:50;102047.09;;;9.92;63.62
66398;BME280;54877;51.504;3.894;2023-03-20T01:15:48;102055.09;;;9.91;63.70
66398;BME280;54877;51.504;3.894;2023-03-20T01:18:16;102061.19;;;9.93;63.86
66398;BME280;54877;51.504;3.894;2023-03-20T01:20:42;102053.34;;;9.90;63.79
66398;BME280;54877;51.504;3.894;2023-03-20T01:23:08;102054.31;;;9.86;63.99
66398;BME280;54877;51.504;3.894;2023-03-20T01:25:34;102051.56;;;9.90;63.95
66398;BME280;54877;51.504;3.894;2023-03-20T01:28:00;102044.44;;;9.92;64.27
66398;BME280;54877;51.504;3.894;2023-03-20T01:30:27;102053.16;;;9.96;63.92
66398;BME280;54877;51.504;3.894;2023-03-20T01:32:54;102063.69;;;9.99;63.85
66398;BME280;54877;51.504;3.894;2023-03-20T01:35:21;102063.91;;;9.90;64.16
66398;BME280;54877;51.504;3.894;2023-03-20T01:37:49;102059.91;;;9.75;64.77
66398;BME280;54877;51.504;3.894;2023-03-20T01:41:00;102041.88;;;9.89;64.57
66398;BME280;54877;51.504;3.894;2023-03-20T01:43:15;102027.78;;;9.89;64.61
66398;BME280;54877;51.504;3.894;2023-03-20T01:45:46;102044.50;;;9.91;64.55
66398;BME280;54877;51.504;3.894;2023-03-20T01:51:17;102041.63;;;9.98;64.72
66398;BME280;54877;51.504;3.894;2023-03-20T01:54:08;102045.47;;;9.87;64.95
66398;BME280;54877;51.504;3.894;2023-03-20T01:56:42;102049.56;;;9.98;64.76
66398;BME280;54877;51.504;3.894;2023-03-20T01:59:16;102048.63;;;10.01;64.56
66398;BME280;54877;51.504;3.894;2023-03-20T02:01:46;102040.91;;;9.93;64.71
66398;BME280;54877;51.504;3.894;2023-03-20T02:04:12;102046.84;;;10.01;64.62
66398;BME280;54877;51.504;3.894;2023-03-20T02:06:38;102039.69;;;10.05;64.63
66398;BME280;54877;51.504;3.894;2023-03-20T02:09:05;102027.38;;;10.04;64.77
66398;BME280;54877;51.504;3.894;2023-03-20T02:11:32;102031.06;;;9.97;65.06
66398;BME280;54877;51.504;3.894;2023-03-20T02:13:59;102029.28;;;9.99;65.16
66398;BME280;54877;51.504;3.894;2023-03-20T02:16:25;102026.50;;;10.03;64.94
66398;BME280;54877;51.504;3.894;2023-03-20T02:18:51;102022.00;;;10.07;64.72
66398;BME280;54877;51.504;3.894;2023-03-20T02:24:12;102022.00;;;10.05;64.65
66398;BME280;54877;51.504;3.894;2023-03-20T02:46:22;102005.50;;;9.97;65.51
66398;BME280;54877;51.504;3.894;2023-03-20T02:49:00;102011.72;;;9.96;65.70
66398;BME280;54877;51.504;3.894;2023-03-20T02:51:38;102014.44;;;9.93;65.69
66398;BME280;54877;51.504;3.894;2023-03-20T02:54:32;102016.94;;;9.98;65.60
66398;BME280;54877;51.504;3.894;2023-03-20T02:57:08;102012.69;;;9.92;65.85
66398;BME280;54877;51.504;3.894;2023-03-20T03:02:26;102003.00;;;9.93;65.61
66398;BME280;54877;51.504;3.894;2023-03-20T03:05:01;101999.25;;;10.00;65.69
66398;BME280;54877;51.504;3.894;2023-03-20T03:07:32;101993.88;;;10.03;65.47
66398;BME280;54877;51.504;3.894;2023-03-20T03:10:06;101996.50;;;10.04;65.31
66398;BME280;54877;51.504;3.894;2023-03-20T03:12:37;101999.13;;;10.04;65.31
66398;BME280;54877;51.504;3.894;2023-03-20T03:15:14;102001.72;;;10.06;65.66
66398;BME280;54877;51.504;3.894;2023-03-20T03:17:44;101999.94;;;10.07;65.29
66398;BME280;54877;51.504;3.894;2023-03-20T03:20:19;101996.34;;;10.09;65.46
66398;BME280;54877;51.504;3.894;2023-03-20T03:22:48;102000.75;;;10.09;65.14
66398;BME280;54877;51.504;3.894;2023-03-20T03:25:14;101999.06;;;10.06;65.41
66398;BME280;54877;51.504;3.894;2023-03-20T03:27:41;101993.69;;;10.09;65.33
66398;BME280;54877;51.504;3.894;2023-03-20T03:30:28;101998.28;;;10.02;65.38
66398;BME280;54877;51.504;3.894;2023-03-20T03:38:53;101988.94;;;9.91;66.01
66398;BME280;54877;51.504;3.894;2023-03-20T03:43:55;101982.00;;;9.87;66.12
66398;BME280;54877;51.504;3.894;2023-03-20T03:46:33;101987.28;;;9.87;66.20
66398;BME280;54877;51.504;3.894;2023-03-20T03:49:23;101989.78;;;9.93;66.22
66398;BME280;54877;51.504;3.894;2023-03-20T03:51:54;101987.22;;;9.90;66.07
66398;BME280;54877;51.504;3.894;2023-03-20T03:54:26;101989.84;;;9.90;66.47
66398;BME280;54877;51.504;3.894;2023-03-20T03:57:07;101979.22;;;9.91;66.08
66398;BME280;54877;51.504;3.894;2023-03-20T03:59:37;101968.75;;;9.88;66.11
66398;BME280;54877;51.504;3.894;2023-03-20T04:02:07;101966.91;;;9.90;66.16
66398;BME280;54877;51.504;3.894;2023-03-20T04:04:34;101977.59;;;9.86;66.40
66398;BME280;54877;51.504;3.894;2023-03-20T04:07:05;101982.88;;;9.87;66.01
66398;BME280;54877;51.504;3.894;2023-03-20T04:09:34;101980.25;;;9.86;66.17
66398;BME280;54877;51.504;3.894;2023-03-20T04:11:59;101976.88;;;9.81;66.53
66398;BME280;54877;51.504;3.894;2023-03-20T04:14:25;101978.53;;;9.85;66.36
66398;BME280;54877;51.504;3.894;2023-03-20T04:16:51;101976.72;;;9.87;66.11
66398;BME280;54877;51.504;3.894;2023-03-20T04:19:16;101978.63;;;9.82;66.57
66398;BME280;54877;51.504;3.894;2023-03-20T04:21:41;101972.38;;;9.84;66.26
66398;BME280;54877;51.504;3.894;2023-03-20T04:24:07;101969.78;;;9.83;66.57
66398;BME280;54877;51.504;3.894;2023-03-20T04:26:32;101970.69;;;9.82;66.56
66398;BME280;54877;51.504;3.894;2023-03-20T04:28:58;101969.88;;;9.80;66.49
66398;BME280;54877;51.504;3.894;2023-03-20T04:31:23;101957.47;;;9.82;66.38
66398;BME280;54877;51.504;3.894;2023-03-20T04:33:48;101961.94;;;9.80;66.28
66398;BME280;54877;51.504;3.894;2023-03-20T04:36:14;101946.91;;;9.80;66.77
66398;BME280;54877;51.504;3.894;2023-03-20T04:38:40;101946.81;;;9.85;66.73
66398;BME280;54877;51.504;3.894;2023-03-20T04:41:05;101946.88;;;9.82;66.54
66398;BME280;54877;51.504;3.894;2023-03-20T04:43:32;101946.88;;;9.82;66.44
66398;BME280;54877;51.504;3.894;2023-03-20T04:45:57;101948.72;;;9.80;66.79
66398;BME280;54877;51.504;3.894;2023-03-20T04:48:22;101940.78;;;9.80;66.60
66398;BME280;54877;51.504;3.894;2023-03-20T04:50:48;101945.22;;;9.78;66.71
66398;BME280;54877;51.504;3.894;2023-03-20T04:53:15;101938.66;;;9.62;67.25
66398;BME280;54877;51.504;3.894;2023-03-20T04:55:41;101937.28;;;9.78;66.50
66398;BME280;54877;51.504;3.894;2023-03-20T04:58:07;101939.13;;;9.76;67.00
66398;BME280;54877;51.504;3.894;2023-03-20T05:00:33;101931.19;;;9.76;66.59
66398;BME280;54877;51.504;3.894;2023-03-20T05:02:58;101931.03;;;9.80;66.67
66398;BME280;54877;51.504;3.894;2023-03-20T05:05:24;101928.72;;;9.70;67.33
66398;BME280;54877;51.504;3.894;2023-03-20T05:07:50;101925.91;;;9.76;66.64
66398;BME280;54877;51.504;3.894;2023-03-20T05:10:16;101924.91;;;9.80;66.72
66398;BME280;54877;51.504;3.894;2023-03-20T05:12:42;101929.72;;;9.66;67.16
66398;BME280;54877;51.504;3.894;2023-03-20T05:15:07;101928.91;;;9.64;67.37
66398;BME280;54877;51.504;3.894;2023-03-20T05:17:33;101924.53;;;9.63;67.28
66398;BME280;54877;51.504;3.894;2023-03-20T05:19:58;101935.81;;;9.69;66.90
66398;BME280;54877;51.504;3.894;2023-03-20T05:22:24;101931.91;;;9.52;68.10
66398;BME280;54877;51.504;3.894;2023-03-20T05:24:49;101931.81;;;9.55;67.68
66398;BME280;54877;51.504;3.894;2023-03-20T05:27:14;101933.50;;;9.57;67.47
66398;BME280;54877;51.504;3.894;2023-03-20T05:29:40;101930.03;;;9.55;67.91
66398;BME280;54877;51.504;3.894;2023-03-20T05:32:05;101927.13;;;9.64;67.55
66398;BME280;54877;51.504;3.894;2023-03-20T05:34:31;101929.66;;;9.69;67.86
66398;BME280;54877;51.504;3.894;2023-03-20T05:36:56;101926.38;;;9.61;68.04
66398;BME280;54877;51.504;3.894;2023-03-20T05:39:21;101916.44;;;9.67;67.84
66398;BME280;54877;51.504;3.894;2023-03-20T05:41:47;101910.28;;;9.67;67.38
66398;BME280;54877;51.504;3.894;2023-03-20T05:44:12;101918.06;;;9.73;67.46
66398;BME280;54877;51.504;3.894;2023-03-20T05:46:38;101923.50;;;9.68;67.53
66398;BME280;54877;51.504;3.894;2023-03-20T05:49:03;101916.53;;;9.64;67.85
66398;BME280;54877;51.504;3.894;2023-03-20T05:51:29;101919.94;;;9.69;67.51
66398;BME280;54877;51.504;3.894;2023-03-20T05:53:54;101926.16;;;9.67;67.54
66398;BME280;54877;51.504;3.894;2023-03-20T05:56:19;101924.53;;;9.63;67.67
66398;BME280;54877;51.504;3.894;2023-03-20T05:58:44;101933.19;;;9.68;67.95
66398;BME280;54877;51.504;3.894;2023-03-20T06:01:10;101930.38;;;9.74;67.75
66398;BME280;54877;51.504;3.894;2023-03-20T06:03:35;101943.59;;;9.74;67.60
66398;BME280;54877;51.504;3.894;2023-03-20T06:06:01;101948.00;;;9.73;67.58
66398;BME280;54877;51.504;3.894;2023-03-20T06:08:27;101936.34;;;9.80;67.40
66398;BME280;54877;51.504;3.894;2023-03-20T06:10:54;101947.16;;;9.73;67.68
66398;BME280;54877;51.504;3.894;2023-03-20T06:13:19;101939.94;;;9.78;67.72
66398;BME280;54877;51.504;3.894;2023-03-20T06:15:45;101936.56;;;9.73;67.82
66398;BME280;54877;51.504;3.894;2023-03-20T06:18:10;101938.72;;;9.60;67.99
66398;BME280;54877;51.504;3.894;2023-03-20T06:20:36;101947.88;;;9.78;67.78
66398;BME280;54877;51.504;3.894;2023-03-20T06:23:01;101947.06;;;9.76;67.55
66398;BME280;54877;51.504;3.894;2023-03-20T06:25:27;101954.81;;;9.82;67.30
66398;BME280;54877;51.504;3.894;2023-03-20T06:27:52;101946.88;;;9.82;67.28
66398;BME280;54877;51.504;3.894;2023-03-20T06:30:17;101952.34;;;9.76;67.68
66398;BME280;54877;51.504;3.894;2023-03-20T06:32:43;101944.06;;;9.88;67.26
66398;BME280;54877;51.504;3.894;2023-03-20T06:35:09;101951.72;;;9.97;67.41
66398;BME280;54877;51.504;3.894;2023-03-20T06:37:35;101953.53;;;9.95;67.31
66398;BME280;54877;51.504;3.894;2023-03-20T06:40:01;101953.47;;;9.98;66.94
66398;BME280;54877;51.504;3.894;2023-03-20T06:42:28;101951.22;;;9.84;67.37
66398;BME280;54877;51.504;3.894;2023-03-20T06:44:53;101953.38;;;10.01;67.32
66398;BME280;54877;51.504;3.894;2023-03-20T06:47:19;101957.78;;;10.00;67.12
66398;BME280;54877;51.504;3.894;2023-03-20T06:49:44;101954.34;;;9.98;67.02
66398;BME280;54877;51.504;3.894;2023-03-20T06:52:13;101960.19;;;10.08;66.73
66398;BME280;54877;51.504;3.894;2023-03-20T06:54:40;101962.03;;;10.06;67.33
66398;BME280;54877;51.504;3.894;2023-03-20T06:57:06;101964.91;;;9.98;67.42
66398;BME280;54877;51.504;3.894;2023-03-20T06:59:31;101956.81;;;10.03;66.71
66398;BME280;54877;51.504;3.894;2023-03-20T07:01:56;101960.19;;;10.08;66.99
66398;BME280;54877;51.504;3.894;2023-03-20T07:04:22;101968.47;;;9.97;67.24
66398;BME280;54877;51.504;3.894;2023-03-20T07:06:47;101972.69;;;10.04;67.04
66398;BME280;54877;51.504;3.894;2023-03-20T07:09:13;101962.03;;;10.06;66.94
66398;BME280;54877;51.504;3.894;2023-03-20T07:11:38;101969.16;;;10.04;67.16
66398;BME280;54877;51.504;3.894;2023-03-20T07:14:04;101971.00;;;10.02;67.28
66398;BME280;54877;51.504;3.894;2023-03-20T07:16:29;101982.06;;;9.85;67.96
66398;BME280;54877;51.504;3.894;2023-03-20T07:18:56;101979.22;;;9.91;67.72
66398;BME280;54877;51.504;3.894;2023-03-20T07:21:21;101975.34;;;10.03;67.37
66398;BME280;54877;51.504;3.894;2023-03-20T07:23:47;101982.72;;;9.93;68.11
66398;BME280;54877;51.504;3.894;2023-03-20T07:26:12;101982.88;;;9.87;68.15
66398;BME280;54877;51.504;3.894;2023-03-20T07:28:38;101992.59;;;9.87;68.10
66398;BME280;54877;51.504;3.894;2023-03-20T07:31:03;101992.16;;;10.02;67.98
66398;BME280;54877;51.504;3.894;2023-03-20T07:33:29;102000.09;;;10.02;67.98
66398;BME280;54877;51.504;3.894;2023-03-20T07:35:54;101992.66;;;9.84;68.42
66398;BME280;54877;51.504;3.894;2023-03-20T07:38:20;101996.44;;;10.06;68.37
66398;BME280;54877;51.504;3.894;2023-03-20T07:40:46;101998.84;;;10.15;68.41
66398;BME280;54877;51.504;3.894;2023-03-20T07:43:13;101998.84;;;10.15;68.21
66398;BME280;54877;51.504;3.894;2023-03-20T07:45:39;102003.97;;;10.21;68.44
66398;BME280;54877;51.504;3.894;2023-03-20T07:48:04;101994.38;;;10.17;68.48
66398;BME280;54877;51.504;3.894;2023-03-20T07:50:30;101991.53;;;10.23;68.70
66398;BME280;54877;51.504;3.894;2023-03-20T07:52:55;101982.72;;;10.24;68.44
66398;BME280;54877;51.504;3.894;2023-03-20T07:55:21;101989.53;;;10.31;68.88
66398;BME280;54877;51.504;3.894;2023-03-20T07:57:49;101987.56;;;10.38;68.51
66398;BME280;54877;51.504;3.894;2023-03-20T08:00:15;101984.34;;;10.28;68.59
66398;BME280;54877;51.504;3.894;2023-03-20T08:02:41;101980.69;;;10.32;68.61
66398;BME280;54877;51.504;3.894;2023-03-20T08:05:07;101977.09;;;10.33;68.56
66398;BME280;54877;51.504;3.894;2023-03-20T08:07:33;101975.41;;;10.32;68.40
66398;BME280;54877;51.504;3.894;2023-03-20T08:09:59;101984.22;;;10.33;68.41
66398;BME280;54877;51.504;3.894;2023-03-20T08:12:24;101986.78;;;10.34;68.42
66398;BME280;54877;51.504;3.894;2023-03-20T08:14:50;101990.06;;;10.42;67.98
66398;BME280;54877;51.504;3.894;2023-03-20T08:17:16;101989.50;;;10.33;68.38
66398;BME280;54877;51.504;3.894;2023-03-20T08:19:42;101988.53;;;10.35;68.54
66398;BME280;54877;51.504;3.894;2023-03-20T08:22:07;101978.69;;;10.40;68.21
66398;BME280;54877;51.504;3.894;2023-03-20T08:24:32;101982.03;;;10.45;68.57
66398;BME280;54877;51.504;3.894;2023-03-20T08:26:58;101987.34;;;10.45;68.68
66398;BME280;54877;51.504;3.894;2023-03-20T08:29:23;101988.25;;;10.44;68.52
66398;BME280;54877;51.504;3.894;2023-03-20T08:31:49;101981.97;;;10.47;68.25
66398;BME280;54877;51.504;3.894;2023-03-20T08:34:14;101987.25;;;10.48;68.44
66398;BME280;54877;51.504;3.894;2023-03-20T08:36:40;101981.53;;;10.60;68.28
66398;BME280;54877;51.504;3.894;2023-03-20T08:39:06;101991.66;;;10.48;67.86
66398;BME280;54877;51.504;3.894;2023-03-20T08:41:32;101988.13;;;10.49;68.44
66398;BME280;54877;51.504;3.894;2023-03-20T08:43:58;101971.06;;;10.57;68.32
66398;BME280;54877;51.504;3.894;2023-03-20T08:46:23;101981.66;;;10.57;68.07
66398;BME280;54877;51.504;3.894;2023-03-20T08:48:49;101984.41;;;10.54;68.63
66398;BME280;54877;51.504;3.894;2023-03-20T08:51:15;101975.44;;;10.58;68.10
66398;BME280;54877;51.504;3.894;2023-03-20T08:53:40;101974.34;;;10.66;68.02
66398;BME280;54877;51.504;3.894;2023-03-20T08:56:06;101985.66;;;10.71;67.79
66398;BME280;54877;51.504;3.894;2023-03-20T08:58:32;101980.00;;;10.81;67.67
66398;BME280;54877;51.504;3.894;2023-03-20T09:01:01;101970.47;;;10.76;67.39
66398;BME280;54877;51.504;3.894;2023-03-20T09:03:31;101979.31;;;10.75;67.13
66398;BME280;54877;51.504;3.894;2023-03-20T09:05:57;101971.06;;;10.85;67.43
66398;BME280;54877;51.504;3.894;2023-03-20T09:08:22;101958.63;;;10.87;67.09
66398;BME280;54877;51.504;3.894;2023-03-20T09:10:48;101962.84;;;10.93;66.86
66398;BME280;54877;51.504;3.894;2023-03-20T09:13:14;101974.41;;;10.90;66.97
66398;BME280;54877;51.504;3.894;2023-03-20T09:15:39;101974.09;;;10.99;66.87
66398;BME280;54877;51.504;3.894;2023-03-20T09:18:05;101977.09;;;10.89;66.66
66398;BME280;54877;51.504;3.894;2023-03-20T09:20:30;101969.66;;;11.00;66.34
66398;BME280;54877;51.504;3.894;2023-03-20T09:22:56;101961.09;;;10.92;66.20
66398;BME280;54877;51.504;3.894;2023-03-20T09:25:21;101969.66;;;11.00;66.44
66398;BME280;54877;51.504;3.894;2023-03-20T09:27:49;101962.22;;;11.11;66.09
66398;BME280;54877;51.504;3.894;2023-03-20T09:30:16;101963.50;;;11.24;66.40
66398;BME280;54877;51.504;3.894;2023-03-20T09:32:41;101972.84;;;11.36;65.96
66398;BME280;54877;51.504;3.894;2023-03-20T09:35:07;101973.59;;;11.39;65.65
66398;BME280;54877;51.504;3.894;2023-03-20T09:37:32;101967.53;;;11.36;65.62
66398;BME280;54877;51.504;3.894;2023-03-20T09:39:57;101972.69;;;11.40;65.14
66398;BME280;54877;51.504;3.894;2023-03-20T09:42:41;101980.31;;;11.49;65.38
66398;BME280;54877;51.504;3.894;2023-03-20T09:53:41;101999.47;;;11.57;65.60
66398;BME280;54877;51.504;3.894;2023-03-20T09:56:16;101999.81;;;11.48;66.38
66398;BME280;54877;51.504;3.894;2023-03-20T09:58:53;102008.97;;;11.38;66.90
66398;BME280;54877;51.504;3.894;2023-03-20T10:01:28;102003.69;;;11.38;66.94
66398;BME280;54877;51.504;3.894;2023-03-20T10:04:00;101994.00;;;11.37;67.03
66398;BME280;54877;51.504;3.894;2023-03-20T10:06:31;101998.47;;;11.35;66.94
66398;BME280;54877;51.504;3.894;2023-03-20T10:08:58;102001.50;;;11.49;67.29
66398;BME280;54877;51.504;3.894;2023-03-20T10:11:38;101992.88;;;11.44;67.55
66398;BME280;54877;51.504;3.894;2023-03-20T10:14:21;101984.84;;;11.21;67.78
66398;BME280;54877;51.504;3.894;2023-03-20T10:19:57;101988.22;;;11.51;67.50
66398;BME280;54877;51.504;3.894;2023-03-20T10:22:32;101982.63;;;11.58;67.09
66398;BME280;54877;51.504;3.894;2023-03-20T10:25:02;101976.88;;;11.72;67.27
66398;BME280;54877;51.504;3.894;2023-03-20T10:27:38;101971.28;;;11.79;66.81
66398;BME280;54877;51.504;3.894;2023-03-20T10:32:50;101970.94;;;11.89;66.22
66398;BME280;54877;51.504;3.894;2023-03-20T10:35:38;101972.16;;;12.03;65.85
66398;BME280;54877;51.504;3.894;2023-03-20T10:40:54;101956.97;;;12.07;65.31
66398;BME280;54877;51.504;3.894;2023-03-20T10:43:31;101957.38;;;12.19;65.47
66398;BME280;54877;51.504;3.894;2023-03-20T10:48:29;101946.41;;;12.28;64.59
66398;BME280;54877;51.504;3.894;2023-03-20T10:51:05;101953.50;;;12.28;63.64
66398;BME280;54877;51.504;3.894;2023-03-20T10:53:46;101951.19;;;12.19;63.65
66398;BME280;54877;51.504;3.894;2023-03-20T10:58:56;101937.16;;;12.38;63.99
66398;BME280;54877;51.504;3.894;2023-03-20T11:01:27;101948.25;;;12.26;63.89
66398;BME280;54877;51.504;3.894;2023-03-20T11:03:53;101937.22;;;12.37;63.72
66398;BME280;54877;51.504;3.894;2023-03-20T11:06:21;101936.28;;;12.38;63.37
66398;BME280;54877;51.504;3.894;2023-03-20T11:08:52;101927.63;;;12.55;63.20
66398;BME280;54877;51.504;3.894;2023-03-20T11:11:23;101928.19;;;12.63;62.31
66398;BME280;54877;51.504;3.894;2023-03-20T11:13:51;101928.63;;;12.52;62.89
66398;BME280;54877;51.504;3.894;2023-03-20T11:19:03;101922.56;;;12.49;62.61
66398;BME280;54877;51.504;3.894;2023-03-20T11:21:36;101922.31;;;12.55;62.71
66398;BME280;54877;51.504;3.894;2023-03-20T11:24:21;101918.75;;;12.56;62.90
66398;BME280;54877;51.504;3.894;2023-03-20T11:27:11;101914.84;;;12.64;62.62
66398;BME280;54877;51.504;3.894;2023-03-20T11:29:40;101918.22;;;12.68;62.46
66398;BME280;54877;51.504;3.894;2023-03-20T11:32:14;101917.38;;;12.67;62.67
66398;BME280;54877;51.504;3.894;2023-03-20T11:34:45;101923.91;;;12.80;62.32
66398;BME280;54877;51.504;3.894;2023-03-20T11:37:20;101919.97;;;12.69;62.62
66398;BME280;54877;51.504;3.894;2023-03-20T11:40:24;101915.41;;;12.72;62.65
66398;BME280;54877;51.504;3.894;2023-03-20T11:43:01;101921.09;;;12.63;63.35
66398;BME280;54877;51.504;3.894;2023-03-20T11:45:33;101919.22;;;12.65;63.16
66398;BME280;54877;51.504;3.894;2023-03-20T11:48:00;101917.63;;;12.61;64.05
66398;BME280;54877;51.504;3.894;2023-03-20T11:50:36;101925.06;;;12.53;64.39
66398;BME280;54877;51.504;3.894;2023-03-20T11:56:00;101916.88;;;12.36;66.72
66398;BME280;54877;51.504;3.894;2023-03-20T11:58:31;101918.34;;;12.21;67.07
66398;BME280;54877;51.504;3.894;2023-03-20T12:00:57;101917.63;;;12.40;66.86
66398;BME280;54877;51.504;3.894;2023-03-20T12:06:17;101913.81;;;12.47;67.06
66398;BME280;54877;51.504;3.894;2023-03-20T12:08:46;101909.13;;;12.53;67.05
66398;BME280;54877;51.504;3.894;2023-03-20T12:14:05;101912.56;;;12.33;67.94
66398;BME280;54877;51.504;3.894;2023-03-20T12:16:38;101911.34;;;12.42;68.45
66398;BME280;54877;51.504;3.894;2023-03-20T12:19:13;101907.31;;;12.32;68.86
66398;BME280;54877;51.504;3.894;2023-03-20T12:21:51;101904.75;;;12.29;69.03
66398;BME280;54877;51.504;3.894;2023-03-20T12:24:39;101913.56;;;12.31;69.76
66398;BME280;54877;51.504;3.894;2023-03-20T12:30:03;101899.47;;;12.29;70.18
66398;BME280;54877;51.504;3.894;2023-03-20T12:32:42;101901.72;;;12.40;70.09
66398;BME280;54877;51.504;3.894;2023-03-20T12:37:51;101886.06;;;12.32;70.05
66398;BME280;54877;51.504;3.894;2023-03-20T12:40:17;101882.06;;;12.22;70.63
66398;BME280;54877;51.504;3.894;2023-03-20T12:45:40;101876.13;;;12.37;70.48
66398;BME280;54877;51.504;3.894;2023-03-20T12:51:06;101859.50;;;12.32;69.87
66398;BME280;54877;51.504;3.894;2023-03-20T12:56:24;101855.16;;;12.51;69.70
66398;BME280;54877;51.504;3.894;2023-03-20T12:59:44;101868.19;;;12.57;69.68
66398;BME280;54877;51.504;3.894;2023-03-20T13:02:02;101856.44;;;12.63;68.95
66398;BME280;54877;51.504;3.894;2023-03-20T13:04:56;101868.94;;;12.61;68.16
66398;BME280;54877;51.504;3.894;2023-03-20T13:10:19;101867.63;;;12.71;67.84
66398;BME280;54877;51.504;3.894;2023-03-20T13:15:20;101859.06;;;12.84;66.84
66398;BME280;54877;51.504;3.894;2023-03-20T13:17:53;101850.69;;;12.93;66.89
66398;BME280;54877;51.504;3.894;2023-03-20T13:23:21;101855.41;;;12.87;66.37
66398;BME280;54877;51.504;3.894;2023-03-20T13:26:11;101862.44;;;12.88;66.25
66398;BME280;54877;51.504;3.894;2023-03-20T13:33:58;101849.69;;;12.96;66.59
66398;BME280;54877;51.504;3.894;2023-03-20T13:42:13;101834.34;;;13.03;67.45
66398;BME280;54877;51.504;3.894;2023-03-20T13:44:43;101831.47;;;13.09;67.39
66398;BME280;54877;51.504;3.894;2023-03-20T13:52:21;101832.38;;;13.08;67.94
66398;BME280;54877;51.504;3.894;2023-03-20T14:05:27;101822.50;;;13.30;67.74
66398;BME280;54877;51.504;3.894;2023-03-20T14:07:59;101824.16;;;13.32;67.55
66398;BME280;54877;51.504;3.894;2023-03-20T14:10:46;101817.72;;;13.38;67.38
66398;BME280;54877;51.504;3.894;2023-03-20T14:13:12;101828.34;;;13.38;67.73
66398;BME280;54877;51.504;3.894;2023-03-20T14:15:47;101816.47;;;13.45;67.10
66398;BME280;54877;51.504;3.894;2023-03-20T14:18:18;101827.94;;;13.47;67.05
66398;BME280;54877;51.504;3.894;2023-03-20T14:20:51;101819.94;;;13.47;67.17
66398;BME280;54877;51.504;3.894;2023-03-20T14:23:24;101823.69;;;13.43;67.45
66398;BME280;54877;51.504;3.894;2023-03-20T14:25:53;101828.84;;;13.46;67.49
66398;BME280;54877;51.504;3.894;2023-03-20T14:30:48;101830.00;;;13.40;67.69
66398;BME280;54877;51.504;3.894;2023-03-20T14:35:44;101828.75;;;13.29;68.24
66398;BME280;54877;51.504;3.894;2023-03-20T14:38:19;101825.97;;;13.32;68.28
66398;BME280;54877;51.504;3.894;2023-03-20T14:43:39;101820.91;;;13.26;68.68
66398;BME280;54877;51.504;3.894;2023-03-20T14:46:07;101811.75;;;13.33;68.64
66398;BME280;54877;51.504;3.894;2023-03-20T14:48:57;101803.63;;;13.36;68.50
66398;BME280;54877;51.504;3.894;2023-03-20T14:51:41;101807.72;;;13.43;68.38
66398;BME280;54877;51.504;3.894;2023-03-20T14:56:49;101789.47;;;13.35;67.89
66398;BME280;54877;51.504;3.894;2023-03-20T14:59:16;101797.03;;;13.44;68.11
66398;BME280;54877;51.504;3.894;2023-03-20T15:01:44;101797.72;;;13.48;67.72
66398;BME280;54877;51.504;3.894;2023-03-20T15:06:55;101792.63;;;13.62;67.52
66398;BME280;54877;51.504;3.894;2023-03-20T15:09:43;101792.47;;;13.65;67.49
66398;BME280;54877;51.504;3.894;2023-03-20T15:12:14;101788.88;;;13.66;67.25
66398;BME280;54877;51.504;3.894;2023-03-20T15:14:46;101793.72;;;13.58;67.16
66398;BME280;54877;51.504;3.894;2023-03-20T15:17:21;101787.75;;;13.72;67.12
66398;BME280;54877;51.504;3.894;2023-03-20T15:19:48;101788.59;;;13.72;66.89
66398;BME280;54877;51.504;3.894;2023-03-20T15:22:18;101797.44;;;13.73;66.94
66398;BME280;54877;51.504;3.894;2023-03-20T15:24:51;101802.41;;;13.80;66.75
66398;BME280;54877;51.504;3.894;2023-03-20T15:27:21;101801.69;;;13.77;66.98